createdAt,value
2023-01-10T00:00:55.849Z,986.91
2023-01-10T00:01:56.588Z,986.97
2023-01-10T00:02:55.966Z,986.92
2023-01-10T00:03:55.831Z,986.97
2023-01-10T00:04:55.877Z,986.98
2023-01-10T00:05:55.797Z,987.06
2023-01-10T00:06:55.824Z,987.08
2023-01-10T00:07:55.789Z,987.03
2023-01-10T00:08:55.775Z,987.04
2023-01-10T00:09:55.781Z,987.06
2023-01-10T00:10:56.593Z,987.06
2023-01-10T00:11:55.750Z,987.10
2023-01-10T00:12:55.748Z,987.02
2023-01-10T00:13:55.735Z,987.16
2023-01-10T00:14:55.769Z,987.19
2023-01-10T00:15:55.773Z,987.21
2023-01-10T00:16:55.707Z,987.22
2023-01-10T00:17:55.699Z,987.20
2023-01-10T00:18:55.702Z,987.19
2023-01-10T00:19:55.681Z,987.26
2023-01-10T00:20:56.600Z,987.24
2023-01-10T00:21:55.687Z,987.25
2023-01-10T00:22:55.660Z,987.22
2023-01-10T00:23:55.657Z,987.27
2023-01-10T00:24:55.655Z,987.25
2023-01-10T00:26:48.666Z,987.32
2023-01-10T00:27:48.678Z,987.32
2023-01-10T00:28:48.651Z,987.35
2023-01-10T00:29:49.750Z,987.40
2023-01-10T00:30:49.789Z,987.30
2023-01-10T00:31:49.719Z,987.35
2023-01-10T00:32:49.713Z,987.40
2023-01-10T00:33:49.705Z,987.44
2023-01-10T00:34:49.708Z,987.39
2023-01-10T00:35:49.707Z,987.43
2023-01-10T00:36:49.705Z,987.36
2023-01-10T00:37:49.682Z,987.38
2023-01-10T00:38:49.669Z,987.31
2023-01-10T00:39:50.649Z,987.35
2023-01-10T00:40:49.647Z,987.37
2023-01-10T00:41:49.633Z,987.40
2023-01-10T00:42:49.622Z,987.48
2023-01-10T00:43:49.631Z,987.45
2023-01-10T00:44:49.612Z,987.46
2023-01-10T00:45:49.617Z,987.52
2023-01-10T00:46:49.592Z,987.52
2023-01-10T00:47:49.584Z,987.52
2023-01-10T00:48:49.582Z,987.59
2023-01-10T00:49:49.573Z,987.56
2023-01-10T00:50:49.559Z,987.55
2023-01-10T00:51:49.559Z,987.59
2023-01-10T00:52:49.563Z,987.62
2023-01-10T00:53:49.544Z,987.60
2023-01-10T00:54:49.525Z,987.67
2023-01-10T00:55:49.618Z,987.67
2023-01-10T00:56:49.521Z,987.67
2023-01-10T00:57:49.518Z,987.69
2023-01-10T00:58:49.558Z,987.77
2023-01-10T00:59:49.546Z,987.80
2023-01-10T01:00:50.131Z,987.83
2023-01-10T01:01:49.660Z,987.89
2023-01-10T01:02:49.653Z,987.90
2023-01-10T01:03:50.111Z,987.97
2023-01-10T01:04:49.461Z,987.97
2023-01-10T01:05:49.437Z,987.97
2023-01-10T01:06:49.437Z,988.05
2023-01-10T01:07:49.638Z,988.00
2023-01-10T01:08:49.419Z,988.06
2023-01-10T01:09:49.413Z,988.06
2023-01-10T01:10:49.411Z,988.09
2023-01-10T01:11:49.432Z,988.12
2023-01-10T01:12:49.391Z,988.18
2023-01-10T01:13:49.382Z,988.17
2023-01-10T01:14:49.371Z,988.23
2023-01-10T01:15:49.439Z,988.27
2023-01-10T01:16:49.365Z,988.28
2023-01-10T01:17:49.349Z,988.20
2023-01-10T01:18:49.331Z,988.28
2023-01-10T01:19:49.349Z,988.25
2023-01-10T01:20:49.314Z,988.29
2023-01-10T01:21:49.316Z,988.34
2023-01-10T01:22:49.311Z,988.39
2023-01-10T01:23:49.289Z,988.44
2023-01-10T01:24:49.285Z,988.45
2023-01-10T01:25:49.271Z,988.38
2023-01-10T01:26:49.268Z,988.45
2023-01-10T01:27:49.276Z,988.49
2023-01-10T01:28:49.244Z,988.52
2023-01-10T01:29:50.180Z,988.53
2023-01-10T01:30:49.327Z,988.55
2023-01-10T01:31:49.244Z,988.55
2023-01-10T01:32:49.264Z,988.60
2023-01-10T01:33:49.209Z,988.65
2023-01-10T01:34:49.200Z,988.65
2023-01-10T01:35:49.191Z,988.67
2023-01-10T01:36:49.184Z,988.66
2023-01-10T01:37:49.226Z,988.68
2023-01-10T01:38:49.177Z,988.68
2023-01-10T01:39:50.113Z,988.68
2023-01-10T01:40:49.164Z,988.73
2023-01-10T01:41:49.133Z,988.78
2023-01-10T01:42:50.137Z,988.80
2023-01-10T01:43:49.141Z,988.78
2023-01-10T01:44:49.130Z,988.76
2023-01-10T01:45:49.123Z,988.78
2023-01-10T01:46:49.625Z,988.78
2023-01-10T01:47:49.112Z,988.79
2023-01-10T01:48:49.101Z,988.72
2023-01-10T01:49:49.100Z,988.71
2023-01-10T01:50:49.087Z,988.83
2023-01-10T01:51:49.077Z,988.80
2023-01-10T01:52:49.067Z,988.81
2023-01-10T01:53:49.074Z,988.97
2023-01-10T01:54:49.048Z,988.92
2023-01-10T01:55:49.053Z,988.95
2023-01-10T01:56:49.037Z,988.93
2023-01-10T01:57:49.034Z,989.01
2023-01-10T01:58:49.021Z,989.04
2023-01-10T01:59:49.013Z,989.05
2023-01-10T02:00:49.001Z,989.07
2023-01-10T02:01:49.019Z,989.14
2023-01-10T02:03:01.839Z,989.12
2023-01-10T02:03:51.043Z,989.16
2023-01-10T02:04:48.983Z,989.18
2023-01-10T02:05:48.969Z,989.20
2023-01-10T02:06:48.962Z,989.20
2023-01-10T02:07:48.938Z,989.20
2023-01-10T02:08:48.942Z,989.25
2023-01-10T02:09:48.941Z,989.26
2023-01-10T02:10:48.959Z,989.30
2023-01-10T02:11:49.558Z,989.23
2023-01-10T02:12:48.921Z,989.32
2023-01-10T02:13:48.894Z,989.25
2023-01-10T02:14:48.899Z,989.24
2023-01-10T02:15:48.920Z,989.28
2023-01-10T02:16:48.867Z,989.32
2023-01-10T02:17:48.864Z,989.32
2023-01-10T02:18:48.854Z,989.27
2023-01-10T02:19:48.843Z,989.32
2023-01-10T02:20:48.835Z,989.30
2023-01-10T02:21:48.825Z,989.32
2023-01-10T02:22:48.828Z,989.32
2023-01-10T02:23:48.816Z,989.36
2023-01-10T02:24:48.818Z,989.46
2023-01-10T02:25:48.805Z,989.46
2023-01-10T02:26:48.781Z,989.44
2023-01-10T02:27:48.813Z,989.43
2023-01-10T02:28:48.787Z,989.46
2023-01-10T02:29:48.780Z,989.49
2023-01-10T02:30:48.769Z,989.52
2023-01-10T02:31:48.756Z,989.54
2023-01-10T02:32:56.954Z,989.59
2023-01-10T02:33:50.748Z,989.52
2023-01-10T02:34:48.735Z,989.65
2023-01-10T02:35:48.722Z,989.60
2023-01-10T02:36:48.712Z,989.64
2023-01-10T02:37:48.706Z,989.63
2023-01-10T02:38:48.711Z,989.65
2023-01-10T02:39:48.693Z,989.69
2023-01-10T02:40:48.687Z,989.77
2023-01-10T02:41:48.679Z,989.74
2023-01-10T02:42:48.667Z,989.76
2023-01-10T02:43:48.651Z,989.80
2023-01-10T02:44:49.662Z,989.86
2023-01-10T02:45:48.662Z,989.84
2023-01-10T02:46:48.708Z,989.85
2023-01-10T02:47:48.621Z,989.86
2023-01-10T02:48:48.616Z,989.87
2023-01-10T02:49:48.612Z,989.81
2023-01-10T02:50:48.606Z,989.83
2023-01-10T02:51:48.594Z,989.89
2023-01-10T02:52:48.579Z,989.90
2023-01-10T02:53:48.571Z,989.83
2023-01-10T02:54:48.569Z,989.87
2023-01-10T02:55:48.567Z,989.95
2023-01-10T02:56:48.576Z,989.95
2023-01-10T02:57:48.549Z,990.00
2023-01-10T02:58:48.603Z,990.06
2023-01-10T02:59:48.532Z,990.07
2023-01-10T03:00:48.529Z,990.06
2023-01-10T03:01:48.557Z,990.12
2023-01-10T03:02:48.505Z,990.10
2023-01-10T03:03:48.492Z,990.16
2023-01-10T03:04:48.556Z,990.13
2023-01-10T03:05:48.471Z,990.25
2023-01-10T03:06:48.488Z,990.21
2023-01-10T03:07:48.476Z,990.27
2023-01-10T03:08:49.079Z,990.29
2023-01-10T03:09:48.453Z,990.21
2023-01-10T03:10:48.442Z,990.26
2023-01-10T03:11:48.428Z,990.30
2023-01-10T03:12:48.452Z,990.26
2023-01-10T03:13:48.421Z,990.22
2023-01-10T03:14:48.402Z,990.25
2023-01-10T03:15:48.410Z,990.32
2023-01-10T03:16:48.395Z,990.30
2023-01-10T03:17:48.380Z,990.30
2023-01-10T03:18:48.373Z,990.25
2023-01-10T03:19:48.359Z,990.27
2023-01-10T03:20:48.357Z,990.21
2023-01-10T03:21:48.344Z,990.26
2023-01-10T03:22:48.362Z,990.29
2023-01-10T03:23:48.351Z,990.27
2023-01-10T03:24:48.339Z,990.31
2023-01-10T03:25:49.321Z,990.31
2023-01-10T03:26:48.307Z,990.29
2023-01-10T03:27:48.383Z,990.37
2023-01-10T03:28:48.294Z,990.39
2023-01-10T03:29:48.295Z,990.44
2023-01-10T03:30:48.284Z,990.41
2023-01-10T03:31:48.283Z,990.45
2023-01-10T03:32:48.282Z,990.47
2023-01-10T03:33:48.251Z,990.46
2023-01-10T03:34:48.272Z,990.46
2023-01-10T03:35:48.244Z,990.53
2023-01-10T03:36:48.230Z,990.49
2023-01-10T03:37:48.227Z,990.61
2023-01-10T03:38:48.215Z,990.51
2023-01-10T03:39:48.208Z,990.66
2023-01-10T03:40:48.207Z,990.71
2023-01-10T03:41:48.190Z,990.71
2023-01-10T03:42:48.189Z,990.77
2023-01-10T03:43:48.176Z,990.75
2023-01-10T03:44:48.158Z,990.81
2023-01-10T03:45:49.166Z,990.85
2023-01-10T03:46:48.190Z,990.87
2023-01-10T03:47:48.152Z,990.85
2023-01-10T03:48:48.215Z,990.89
2023-01-10T03:49:48.145Z,990.91
2023-01-10T03:50:48.121Z,990.91
2023-01-10T03:51:48.108Z,990.89
2023-01-10T03:52:48.102Z,990.91
2023-01-10T03:53:48.100Z,990.96
2023-01-10T03:54:48.097Z,990.94
2023-01-10T03:55:48.084Z,991.01
2023-01-10T03:56:48.080Z,991.02
2023-01-10T03:57:48.059Z,991.06
2023-01-10T03:58:48.057Z,991.12
2023-01-10T03:59:48.042Z,991.08
2023-01-10T04:00:48.071Z,991.11
2023-01-10T04:01:48.198Z,991.13
2023-01-10T04:02:48.029Z,991.15
2023-01-10T04:03:48.070Z,991.24
2023-01-10T04:04:48.651Z,991.21
2023-01-10T04:05:47.998Z,991.27
2023-01-10T04:06:47.992Z,991.27
2023-01-10T04:07:47.992Z,991.31
2023-01-10T04:08:47.989Z,991.32
2023-01-10T04:09:47.961Z,991.34
2023-01-10T04:10:47.955Z,991.34
2023-01-10T04:11:47.945Z,991.36
2023-01-10T04:12:47.947Z,991.38
2023-01-10T04:13:47.939Z,991.42
2023-01-10T04:14:47.955Z,991.41
2023-01-10T04:15:47.915Z,991.48
2023-01-10T04:16:47.911Z,991.43
2023-01-10T04:17:47.923Z,991.53
2023-01-10T04:18:47.891Z,991.49
2023-01-10T04:19:47.885Z,991.55
2023-01-10T04:20:47.883Z,991.56
2023-01-10T04:21:47.873Z,991.54
2023-01-10T04:22:47.868Z,991.56
2023-01-10T04:23:47.861Z,991.64
2023-01-10T04:24:47.850Z,991.61
2023-01-10T04:25:47.851Z,991.63
2023-01-10T04:26:47.853Z,991.58
2023-01-10T04:27:47.843Z,991.55
2023-01-10T04:28:47.816Z,991.62
2023-01-10T04:29:47.799Z,991.60
2023-01-10T04:30:47.796Z,991.58
2023-01-10T04:31:47.865Z,991.65
2023-01-10T04:32:47.779Z,991.69
2023-01-10T04:33:47.771Z,991.69
2023-01-10T04:34:47.760Z,991.72
2023-01-10T04:35:47.763Z,991.73
2023-01-10T04:36:49.920Z,991.78
2023-01-10T04:37:47.736Z,991.84
2023-01-10T04:38:48.654Z,991.85
2023-01-10T04:39:47.725Z,991.88
2023-01-10T04:40:47.718Z,991.91
2023-01-10T04:41:47.727Z,991.92
2023-01-10T04:42:47.740Z,991.86
2023-01-10T04:43:47.697Z,991.94
2023-01-10T04:44:47.695Z,991.90
2023-01-10T04:45:47.703Z,991.98
2023-01-10T04:46:48.582Z,992.01
2023-01-10T04:47:47.661Z,991.97
2023-01-10T04:48:47.655Z,992.04
2023-01-10T04:49:47.640Z,991.98
2023-01-10T04:50:47.635Z,992.03
2023-01-10T04:51:47.629Z,992.04
2023-01-10T04:52:47.625Z,992.07
2023-01-10T04:53:47.615Z,992.10
2023-01-10T04:54:47.609Z,992.08
2023-01-10T04:55:47.604Z,992.11
2023-01-10T04:56:47.587Z,992.11
2023-01-10T04:57:47.585Z,992.14
2023-01-10T04:58:47.572Z,992.14
2023-01-10T04:59:47.561Z,992.21
2023-01-10T05:00:47.551Z,992.21
2023-01-10T05:01:47.674Z,992.20
2023-01-10T05:02:47.625Z,992.18
2023-01-10T05:03:47.529Z,992.14
2023-01-10T05:04:47.511Z,992.25
2023-01-10T05:05:47.516Z,992.21
2023-01-10T05:06:47.498Z,992.24
2023-01-10T05:07:47.521Z,992.30
2023-01-10T05:08:47.490Z,992.21
2023-01-10T05:09:47.481Z,992.31
2023-01-10T05:10:47.477Z,992.35
2023-01-10T05:11:47.465Z,992.33
2023-01-10T05:12:47.469Z,992.34
2023-01-10T05:13:48.207Z,992.31
2023-01-10T05:14:48.436Z,992.31
2023-01-10T05:15:47.434Z,992.34
2023-01-10T05:16:47.457Z,992.34
2023-01-10T05:17:48.167Z,992.35
2023-01-10T05:18:47.410Z,992.35
2023-01-10T05:19:47.408Z,992.38
2023-01-10T05:20:47.397Z,992.41
2023-01-10T05:21:47.385Z,992.39
2023-01-10T05:22:47.376Z,992.49
2023-01-10T05:23:47.362Z,992.53
2023-01-10T05:24:47.369Z,992.50
2023-01-10T05:25:47.340Z,992.47
2023-01-10T05:26:47.338Z,992.49
2023-01-10T05:27:47.327Z,992.48
2023-01-10T05:28:47.325Z,992.45
2023-01-10T05:29:47.318Z,992.48
2023-01-10T05:30:47.363Z,992.56
2023-01-10T05:31:47.323Z,992.46
2023-01-10T05:32:47.294Z,992.53
2023-01-10T05:33:47.277Z,992.52
2023-01-10T05:34:47.270Z,992.52
2023-01-10T05:35:47.261Z,992.54
2023-01-10T05:36:47.259Z,992.61
2023-01-10T05:37:47.253Z,992.63
2023-01-10T05:38:47.255Z,992.60
2023-01-10T05:39:47.219Z,992.65
2023-01-10T05:40:48.226Z,992.67
2023-01-10T05:41:47.217Z,992.64
2023-01-10T05:42:47.213Z,992.70
2023-01-10T05:43:47.205Z,992.74
2023-01-10T05:44:47.212Z,992.76
2023-01-10T05:45:47.196Z,992.73
2023-01-10T05:46:47.173Z,992.78
2023-01-10T05:47:48.164Z,992.86
2023-01-10T05:48:47.173Z,992.90
2023-01-10T05:49:47.162Z,992.90
2023-01-10T05:50:47.145Z,992.99
2023-01-10T05:51:47.141Z,993.08
2023-01-10T05:52:47.126Z,993.08
2023-01-10T05:53:48.065Z,993.09
2023-01-10T05:54:48.164Z,993.18
2023-01-10T05:55:47.662Z,993.16
2023-01-10T05:56:47.101Z,993.19
2023-01-10T05:57:47.093Z,993.21
2023-01-10T05:58:47.385Z,993.28
2023-01-10T05:59:48.085Z,993.26
2023-01-10T06:00:47.066Z,993.26
2023-01-10T06:01:47.075Z,993.28
2023-01-10T06:02:47.158Z,993.30
2023-01-10T06:03:47.043Z,993.37
2023-01-10T06:04:47.067Z,993.37
2023-01-10T06:05:48.806Z,993.39
2023-01-10T06:06:48.020Z,993.40
2023-01-10T06:07:47.030Z,993.36
2023-01-10T06:08:47.004Z,993.39
2023-01-10T06:09:47.000Z,993.37
2023-01-10T06:10:47.004Z,993.39
2023-01-10T06:11:46.981Z,993.43
2023-01-10T06:12:46.980Z,993.49
2023-01-10T06:13:47.672Z,993.48
2023-01-10T06:14:46.964Z,993.51
2023-01-10T06:15:47.712Z,993.55
2023-01-10T06:16:46.944Z,993.55
2023-01-10T06:17:46.932Z,993.63
2023-01-10T06:18:46.921Z,993.64
2023-01-10T06:19:46.913Z,993.68
2023-01-10T06:20:46.907Z,993.69
2023-01-10T06:21:46.903Z,993.71
2023-01-10T06:22:46.896Z,993.71
2023-01-10T06:23:46.879Z,993.79
2023-01-10T06:24:46.897Z,993.72
2023-01-10T06:25:46.887Z,993.75
2023-01-10T06:26:46.867Z,993.80
2023-01-10T06:27:46.836Z,993.78
2023-01-10T06:28:47.845Z,993.81
2023-01-10T06:29:46.832Z,993.76
2023-01-10T06:30:46.877Z,993.81
2023-01-10T06:31:48.687Z,993.68
2023-01-10T06:32:46.830Z,993.75
2023-01-10T06:33:47.675Z,993.79
2023-01-10T06:34:46.821Z,993.79
2023-01-10T06:35:46.825Z,993.80
2023-01-10T06:36:46.778Z,993.81
2023-01-10T06:37:46.777Z,993.85
2023-01-10T06:38:47.601Z,993.81
2023-01-10T06:39:46.753Z,993.82
2023-01-10T06:40:46.750Z,993.89
2023-01-10T06:41:46.736Z,993.82
2023-01-10T06:42:46.741Z,993.92
2023-01-10T06:43:46.782Z,993.90
2023-01-10T06:44:46.718Z,993.94
2023-01-10T06:45:46.791Z,993.96
2023-01-10T06:46:46.702Z,994.01
2023-01-10T06:47:46.699Z,993.96
2023-01-10T06:48:46.686Z,993.94
2023-01-10T06:49:46.676Z,993.94
2023-01-10T06:50:46.684Z,993.97
2023-01-10T06:51:46.667Z,994.05
2023-01-10T06:52:48.601Z,994.07
2023-01-10T06:53:46.654Z,994.09
2023-01-10T06:54:46.644Z,994.11
2023-01-10T06:55:46.644Z,994.13
2023-01-10T06:56:46.627Z,994.19
2023-01-10T06:57:46.613Z,994.17
2023-01-10T06:58:49.599Z,994.19
2023-01-10T06:59:46.622Z,994.21
2023-01-10T07:00:46.677Z,994.19
2023-01-10T07:01:46.777Z,994.20
2023-01-10T07:02:46.573Z,994.17
2023-01-10T07:03:47.224Z,994.19
2023-01-10T07:04:46.560Z,994.17
2023-01-10T07:05:46.566Z,994.16
2023-01-10T07:06:46.545Z,994.27
2023-01-10T07:07:46.530Z,994.30
2023-01-10T07:08:46.520Z,994.34
2023-01-10T07:09:46.513Z,994.34
2023-01-10T07:10:47.123Z,994.35
2023-01-10T07:11:46.517Z,994.32
2023-01-10T07:12:46.488Z,994.36
2023-01-10T07:13:46.484Z,994.38
2023-01-10T07:14:46.472Z,994.37
2023-01-10T07:15:47.114Z,994.41
2023-01-10T07:16:46.460Z,994.45
2023-01-10T07:17:46.469Z,994.42
2023-01-10T07:18:46.454Z,994.38
2023-01-10T07:19:46.493Z,994.37
2023-01-10T07:20:46.431Z,994.44
2023-01-10T07:21:46.427Z,994.43
2023-01-10T07:22:46.421Z,994.46
2023-01-10T07:23:46.414Z,994.47
2023-01-10T07:24:46.441Z,994.48
2023-01-10T07:25:46.397Z,994.56
2023-01-10T07:26:46.386Z,994.54
2023-01-10T07:27:47.104Z,994.62
2023-01-10T07:28:46.385Z,994.62
2023-01-10T07:29:46.403Z,994.68
2023-01-10T07:30:46.353Z,994.71
2023-01-10T07:31:46.358Z,994.74
2023-01-10T07:32:46.351Z,994.73
2023-01-10T07:33:46.343Z,994.79
2023-01-10T07:34:46.330Z,994.75
2023-01-10T07:35:46.312Z,994.79
2023-01-10T07:36:46.302Z,994.82
2023-01-10T07:37:46.295Z,994.81
2023-01-10T07:38:46.297Z,994.84
2023-01-10T07:39:46.283Z,994.88
2023-01-10T07:40:46.284Z,994.87
2023-01-10T07:41:46.276Z,994.92
2023-01-10T07:42:46.288Z,994.95
2023-01-10T07:43:46.243Z,994.83
2023-01-10T07:44:48.028Z,994.82
2023-01-10T07:45:46.247Z,994.82
2023-01-10T07:46:46.230Z,994.84
2023-01-10T07:47:46.241Z,994.77
2023-01-10T07:48:46.227Z,994.83
2023-01-10T07:49:46.211Z,994.78
2023-01-10T07:50:46.212Z,994.79
2023-01-10T07:51:46.205Z,994.82
2023-01-10T07:52:46.193Z,994.75
2023-01-10T07:53:46.186Z,994.80
2023-01-10T07:54:46.169Z,994.85
2023-01-10T07:55:46.173Z,994.86
2023-01-10T07:56:46.152Z,994.82
2023-01-10T07:57:46.137Z,994.90
2023-01-10T07:58:46.131Z,994.88
2023-01-10T07:59:46.147Z,994.89
2023-01-10T08:00:46.125Z,994.91
2023-01-10T08:01:46.113Z,994.95
2023-01-10T08:02:46.190Z,994.97
2023-01-10T08:03:46.115Z,994.95
2023-01-10T08:04:46.134Z,995.02
2023-01-10T08:05:46.091Z,995.02
2023-01-10T08:06:46.065Z,995.09
2023-01-10T08:07:46.057Z,995.12
2023-01-10T08:08:46.079Z,995.14
2023-01-10T08:09:46.061Z,995.22
2023-01-10T08:10:46.059Z,995.25
2023-01-10T08:11:46.033Z,995.35
2023-01-10T08:12:46.027Z,995.32
2023-01-10T08:13:46.014Z,995.36
2023-01-10T08:14:46.633Z,995.44
2023-01-10T08:15:46.058Z,995.46
2023-01-10T08:16:45.997Z,995.45
2023-01-10T08:17:46.001Z,995.48
2023-01-10T08:18:45.980Z,995.50
2023-01-10T08:19:46.615Z,995.47
2023-01-10T08:20:45.976Z,995.57
2023-01-10T08:21:46.704Z,995.51
2023-01-10T08:22:45.945Z,995.54
2023-01-10T08:23:45.954Z,995.56
2023-01-10T08:24:45.938Z,995.64
2023-01-10T08:25:45.925Z,995.60
2023-01-10T08:26:46.628Z,995.60
2023-01-10T08:27:45.910Z,995.60
2023-01-10T08:28:45.893Z,995.61
2023-01-10T08:29:45.911Z,995.57
2023-01-10T08:30:45.885Z,995.56
2023-01-10T08:31:45.878Z,995.46
2023-01-10T08:32:45.868Z,995.47
2023-01-10T08:33:45.871Z,995.47
2023-01-10T08:34:45.852Z,995.52
2023-01-10T08:35:45.859Z,995.55
2023-01-10T08:36:46.623Z,995.53
2023-01-10T08:37:46.648Z,995.62
2023-01-10T08:38:45.848Z,995.67
2023-01-10T08:39:45.815Z,995.64
2023-01-10T08:40:45.791Z,995.76
2023-01-10T08:41:45.785Z,995.76
2023-01-10T08:42:45.785Z,995.85
2023-01-10T08:43:45.790Z,995.84
2023-01-10T08:44:45.752Z,995.85
2023-01-10T08:45:45.749Z,995.81
2023-01-10T08:46:45.878Z,995.70
2023-01-10T08:47:45.731Z,995.65
2023-01-10T08:48:45.755Z,995.58
2023-01-10T08:49:45.754Z,995.44
2023-01-10T08:50:45.713Z,995.35
2023-01-10T08:51:45.704Z,995.40
2023-01-10T08:52:45.788Z,995.49
2023-01-10T08:53:45.711Z,995.48
2023-01-10T08:54:45.686Z,995.56
2023-01-10T08:55:45.673Z,995.54
2023-01-10T08:56:45.673Z,995.52
2023-01-10T08:57:45.693Z,995.57
2023-01-10T08:58:45.659Z,995.60
2023-01-10T08:59:45.639Z,995.63
2023-01-10T09:00:45.636Z,995.60
2023-01-10T09:01:45.760Z,995.54
2023-01-10T09:02:46.220Z,995.52
2023-01-10T09:03:45.605Z,995.53
2023-01-10T09:04:45.620Z,995.60
2023-01-10T09:05:45.588Z,995.69
2023-01-10T09:06:46.606Z,995.76
2023-01-10T09:07:45.586Z,995.86
2023-01-10T09:08:45.568Z,995.89
2023-01-10T09:09:45.554Z,995.83
2023-01-10T09:10:45.562Z,995.88
2023-01-10T09:11:45.563Z,995.89
2023-01-10T09:12:45.536Z,995.82
2023-01-10T09:13:45.524Z,995.81
2023-01-10T09:14:45.512Z,995.84
2023-01-10T09:15:45.559Z,995.85
2023-01-10T09:16:45.570Z,995.86
2023-01-10T09:17:45.494Z,995.96
2023-01-10T09:18:45.482Z,995.92
2023-01-10T09:19:45.473Z,995.88
2023-01-10T09:20:45.471Z,995.87
2023-01-10T09:21:45.458Z,995.84
2023-01-10T09:22:45.442Z,995.87
2023-01-10T09:23:45.448Z,995.87
2023-01-10T09:24:46.144Z,995.87
2023-01-10T09:25:45.435Z,995.86
2023-01-10T09:26:45.418Z,995.89
2023-01-10T09:27:45.415Z,995.83
2023-01-10T09:28:48.032Z,995.91
2023-01-10T09:29:45.420Z,995.89
2023-01-10T09:30:45.416Z,995.91
2023-01-10T09:31:46.194Z,995.93
2023-01-10T09:32:45.367Z,995.96
2023-01-10T09:33:47.415Z,995.99
2023-01-10T09:34:46.364Z,996.01
2023-01-10T09:35:45.368Z,995.93
2023-01-10T09:36:45.342Z,995.96
2023-01-10T09:37:45.328Z,995.93
2023-01-10T09:38:45.346Z,995.95
2023-01-10T09:39:45.315Z,995.91
2023-01-10T09:40:45.302Z,995.93
2023-01-10T09:41:45.293Z,995.96
2023-01-10T09:42:45.293Z,995.94
2023-01-10T09:43:45.295Z,995.97
2023-01-10T09:44:45.265Z,995.91
2023-01-10T09:45:45.282Z,995.92
2023-01-10T09:46:45.363Z,995.96
2023-01-10T09:47:45.247Z,995.94
2023-01-10T09:48:45.248Z,995.96
2023-01-10T09:49:47.149Z,995.96
2023-01-10T09:50:45.242Z,995.93
2023-01-10T09:51:45.216Z,995.97
2023-01-10T09:52:45.197Z,995.90
2023-01-10T09:53:45.186Z,995.94
2023-01-10T09:54:46.200Z,995.92
2023-01-10T09:55:45.712Z,995.98
2023-01-10T09:56:45.172Z,995.95
2023-01-10T09:57:45.159Z,995.94
2023-01-10T09:58:45.154Z,996.00
2023-01-10T09:59:45.149Z,995.96
2023-01-10T10:00:45.153Z,995.93
2023-01-10T10:01:45.134Z,996.03
2023-01-10T10:02:45.127Z,995.94
2023-01-10T10:03:45.250Z,995.97
2023-01-10T10:04:45.117Z,995.88
2023-01-10T10:05:45.096Z,995.98
2023-01-10T10:06:45.087Z,995.92
2023-01-10T10:07:45.078Z,995.94
2023-01-10T10:08:45.070Z,995.99
2023-01-10T10:09:45.093Z,995.99
2023-01-10T10:10:45.068Z,996.05
2023-01-10T10:11:45.050Z,996.08
2023-01-10T10:12:45.087Z,996.02
2023-01-10T10:13:45.037Z,996.06
2023-01-10T10:14:45.026Z,996.10
2023-01-10T10:15:45.019Z,996.03
2023-01-10T10:16:45.021Z,996.03
2023-01-10T10:17:45.006Z,996.05
2023-01-10T10:18:46.598Z,996.05
2023-01-10T10:19:44.992Z,996.04
2023-01-10T10:20:44.984Z,996.04
2023-01-10T10:21:44.971Z,996.07
2023-01-10T10:22:44.974Z,996.05
2023-01-10T10:23:45.718Z,996.08
2023-01-10T10:24:44.948Z,996.05
2023-01-10T10:25:45.953Z,996.06
2023-01-10T10:26:45.332Z,996.04
2023-01-10T10:27:45.069Z,996.09
2023-01-10T10:28:53.807Z,996.12
2023-01-10T10:29:47.735Z,996.08
2023-01-10T10:30:45.899Z,996.12
2023-01-10T10:31:45.031Z,996.14
2023-01-10T10:32:44.891Z,996.12
2023-01-10T10:33:44.883Z,996.19
2023-01-10T10:34:44.871Z,996.15
2023-01-10T10:35:44.863Z,996.15
2023-01-10T10:36:45.725Z,996.18
2023-01-10T10:37:45.638Z,996.28
2023-01-10T10:38:44.836Z,996.19
2023-01-10T10:39:44.832Z,996.25
2023-01-10T10:40:44.854Z,996.19
2023-01-10T10:41:44.842Z,996.20
2023-01-10T10:42:44.801Z,996.27
2023-01-10T10:43:44.794Z,996.22
2023-01-10T10:44:44.791Z,996.20
2023-01-10T10:45:44.835Z,996.28
2023-01-10T10:46:44.779Z,996.24
2023-01-10T10:48:55.554Z,996.29
2023-01-10T10:49:56.429Z,996.25
2023-01-10T10:50:56.426Z,996.30
2023-01-10T10:51:55.525Z,996.26
2023-01-10T10:52:56.502Z,996.28
2023-01-10T10:53:55.512Z,996.31
2023-01-10T10:54:55.499Z,996.27
2023-01-10T10:55:55.515Z,996.26
2023-01-10T10:56:55.457Z,996.34
2023-01-10T10:58:00.605Z,996.36
2023-01-10T10:58:56.465Z,996.39
2023-01-10T10:59:55.457Z,996.35
2023-01-10T11:00:55.527Z,996.33
2023-01-10T11:01:57.435Z,996.31
2023-01-10T11:02:55.411Z,996.39
2023-01-10T11:03:55.408Z,996.33
2023-01-10T11:04:55.468Z,996.34
2023-01-10T11:05:55.411Z,996.40
2023-01-10T11:06:55.384Z,996.39
2023-01-10T11:07:56.474Z,996.28
2023-01-10T11:08:56.473Z,996.32
2023-01-10T11:09:56.457Z,996.26
2023-01-10T11:10:56.973Z,996.22
2023-01-10T11:11:57.400Z,996.35
2023-01-10T11:12:56.429Z,996.35
2023-01-10T11:13:56.452Z,996.34
2023-01-10T11:14:57.967Z,996.37
2023-01-10T11:15:56.465Z,996.34
2023-01-10T11:16:56.396Z,996.33
2023-01-10T11:17:56.384Z,996.32
2023-01-10T11:18:56.380Z,996.33
2023-01-10T11:19:56.407Z,996.31
2023-01-10T11:20:58.040Z,996.37
2023-01-10T11:21:56.381Z,996.34
2023-01-10T11:22:56.370Z,996.32
2023-01-10T11:23:57.983Z,996.40
2023-01-10T11:24:56.394Z,996.44
2023-01-10T11:25:56.985Z,996.38
2023-01-10T11:26:58.005Z,996.41
2023-01-10T11:28:29.420Z,996.44
2023-01-10T11:28:56.299Z,996.43
2023-01-10T11:29:56.283Z,996.44
2023-01-10T11:30:56.282Z,996.43
2023-01-10T11:31:56.390Z,996.44
2023-01-10T11:32:56.264Z,996.45
2023-01-10T11:33:56.275Z,996.45
2023-01-10T11:34:57.270Z,996.39
2023-01-10T11:35:56.262Z,996.43
2023-01-10T11:36:56.265Z,996.45
2023-01-10T11:37:57.910Z,996.41
2023-01-10T11:38:56.215Z,996.47
2023-01-10T11:39:56.221Z,996.41
2023-01-10T11:40:56.188Z,996.44
2023-01-10T11:41:56.188Z,996.36
2023-01-10T11:42:58.302Z,996.44
2023-01-10T11:43:57.206Z,996.46
2023-01-10T11:44:56.160Z,996.35
2023-01-10T11:45:56.202Z,996.42
2023-01-10T11:46:57.995Z,996.36
2023-01-10T11:47:56.940Z,996.42
2023-01-10T11:49:05.402Z,996.44
2023-01-10T11:49:59.930Z,996.43
2023-01-10T11:50:56.119Z,996.40
2023-01-10T11:51:56.135Z,996.46
2023-01-10T11:52:56.152Z,996.34
2023-01-10T11:53:56.147Z,996.46
2023-01-10T11:54:58.291Z,996.44
2023-01-10T11:55:57.108Z,996.46
2023-01-10T11:56:56.112Z,996.54
2023-01-10T11:57:57.012Z,996.43
2023-01-10T11:58:57.057Z,996.48
2023-01-10T11:59:56.051Z,996.48
2023-01-10T12:00:58.816Z,996.52
2023-01-10T12:04:00.989Z,996.50
2023-01-10T12:04:02.444Z,996.50
2023-01-10T12:05:02.497Z,996.52
2023-01-10T12:06:06.927Z,996.46
2023-01-10T12:07:03.047Z,996.36
2023-01-10T12:08:04.046Z,996.33
2023-01-10T12:09:02.423Z,996.27
2023-01-10T12:10:03.015Z,996.28
2023-01-10T12:11:02.415Z,996.28
2023-01-10T12:12:02.381Z,996.28
2023-01-10T12:13:02.366Z,996.26
2023-01-10T12:14:02.373Z,996.29
2023-01-10T12:15:03.443Z,996.26
2023-01-10T12:16:02.346Z,996.28
2023-01-10T12:17:03.064Z,996.25
2023-01-10T12:18:03.317Z,996.26
2023-01-10T12:19:02.379Z,996.25
2023-01-10T12:20:02.944Z,996.27
2023-01-10T12:21:02.303Z,996.24
2023-01-10T12:22:02.291Z,996.27
2023-01-10T12:23:02.425Z,996.29
2023-01-10T12:24:02.941Z,996.24
2023-01-10T12:25:02.289Z,996.29
2023-01-10T12:26:11.807Z,996.27
2023-01-10T12:27:05.001Z,996.32
2023-01-10T12:28:02.268Z,996.26
2023-01-10T12:29:02.933Z,996.27
2023-01-10T12:30:02.240Z,996.26
2023-01-10T12:31:02.238Z,996.27
2023-01-10T12:32:02.208Z,996.24